• Join FlightAware (Why Join?)
  • Login
  • US Flag 
02:31AM EDT


 

Airport Tracker/Info


-or-


 

Live Flight TrackerFlight Track Log ✈ SKW6528 ✈ 21-Apr-2013 ✈ KBFL - KDEN

Flight Track Log - Related Links

Times and Time Zones

All times are in EDT time to prevent confusion due to time zone crossing. See the SKW6528 flight status page for this flight to view local times or setup timezone preferences in your user account.

Time Position Orientation Groundspeed Altitude Reporting Facility
EDT Latitude Longitude Course Direction KTS MPH feet Rate Location/Type
08:54AM 35.4594 -119.0928 132° Southeast 248 285 4,900  Level Los Angeles Center
08:55AM 35.1739 -118.7405 141° Southeast  Level FlightAware Approximate
08:55AM 35.4464 -119.0153 102° East 281 323 7,000  Level Los Angeles Center
08:56AM 35.0815 -118.6423 136° Southeast  Level FlightAware Approximate
08:56AM 35.3764 -118.9722 153° Southeast 282 325 9,200  Level Los Angeles Center
08:57AM 34.9959 -118.5356 129° Southeast  Level FlightAware Approximate
08:57AM 35.3131 -118.9011 137° Southeast 302 348 10,900  Level Los Angeles Center
08:58AM 34.9154 -118.4317 132° Southeast  Level FlightAware Approximate
08:58AM 35.2472 -118.8247 137° Southeast 320 368 12,700  Level Los Angeles Center
08:59AM 34.8360 -118.3258 132° Southeast  Level FlightAware Approximate
08:59AM 35.1786 -118.7483 138° Southeast 328 377 14,200  Level Los Angeles Center
09:00AM 35.1064 -118.6681 138° Southeast 345 397 15,600 1,380 Climbing Los Angeles Center
09:01AM 35.0314 -118.5850 138° Southeast 359 413 17,000 1,200 Climbing Los Angeles Center
09:02AM 34.9603 -118.4933 133° Southeast 370 426 18,100 1,200 Climbing Los Angeles Center
09:03AM 34.9022 -118.3850 123° Southeast 394 453 19,400 1,320 Climbing Los Angeles Center
09:04AM 34.9361 -118.2689 70° East 373 429 20,800 1,200 Climbing Los Angeles Center
09:05AM 34.9803 -118.1539 65° Northeast 375 432 21,900 1,200 Climbing Los Angeles Center
09:06AM 35.0253 -118.0381 65° Northeast 377 434 23,200 1,080 Climbing Los Angeles Center
09:07AM 35.0692 -117.9217 65° Northeast 377 434 24,100 840 Climbing Los Angeles Center
09:08AM 35.1167 -117.8000 64° Northeast 390 449 24,900 600 Climbing Los Angeles Center
09:09AM 35.1658 -117.6711 65° Northeast 407 468 25,400 540 Climbing Los Angeles Center
09:10AM 35.2161 -117.5367 65° Northeast 421 484 26,100 600 Climbing Los Angeles Center
09:11AM 35.2650 -117.4044 66° East 422 486 26,700 540 Climbing Los Angeles Center
09:12AM 35.3139 -117.2722 66° East 424 488 27,200 480 Climbing Los Angeles Center
09:13AM 35.3636 -117.1389 65° Northeast 428 493 27,700 480 Climbing Los Angeles Center
09:14AM 35.4142 -117.0036 65° Northeast 433 498 28,200 480 Climbing Los Angeles Center
09:15AM 35.4639 -116.8678 66° East 436 502 28,700 480 Climbing Los Angeles Center
09:16AM 35.5147 -116.7322 65° Northeast 437 503 29,200 480 Climbing Los Angeles Center
09:17AM 35.5639 -116.5958 66° East 438 504 29,700 480 Climbing Los Angeles Center
09:18AM 35.6142 -116.4603 65° Northeast 437 503 30,200 480 Climbing Los Angeles Center
09:19AM 35.6642 -116.3239 66° East 439 505 30,700 480 Climbing Los Angeles Center
09:20AM 35.7144 -116.1867 66° East 439 505 31,200 480 Climbing Los Angeles Center
09:21AM 35.7642 -116.0497 66° East 441 507 31,700 480 Climbing Los Angeles Center
09:22AM 35.8136 -115.9136 66° East 437 503 32,200 480 Climbing Los Angeles Center
09:23AM 35.8639 -115.7708 66° East 437 503 32,700 360 Climbing Los Angeles Center
09:24AM 35.9122 -115.6367 66° East 432 497 33,000 120 Climbing Los Angeles Center
09:25AM 35.9600 -115.5006 67° East 437 503 33,000  Level Los Angeles Center
09:26AM 36.0172 -115.3375 67° East 436 502 33,000  Level Los Angeles Center
09:27AM 36.0656 -115.1989 67° East 442 509 33,000  Level Los Angeles Center
09:28AM 36.1114 -115.0572 68° East 446 513 33,000  Level Los Angeles Center
09:29AM 36.1544 -114.9147 69° East 445 512 33,000  Level Los Angeles Center
09:31AM 36.1992 -114.7717 69° East 447 514 33,000  Level Los Angeles Center
09:32AM 36.2419 -114.6267 70° East 449 517 33,000  Level Los Angeles Center
09:33AM 36.2867 -114.4825 69° East 449 517 33,000  Level Los Angeles Center
09:34AM 36.3303 -114.3378 69° East 449 517 33,000  Level Los Angeles Center
09:35AM 36.3733 -114.1925 70° East 451 519 33,000  Level Los Angeles Center
09:36AM 36.4172 -114.0467 69° East 451 519 33,000  Level Los Angeles Center
09:37AM 36.4614 -113.9003 69° East 453 521 33,000  Level Los Angeles Center
09:38AM 36.5089 -113.7397 70° East 453 521 33,000  Level Los Angeles Center
09:39AM 36.5514 -113.5925 70° East 454 522 33,000  Level Los Angeles Center
09:40AM 36.5956 -113.4461 69° East 455 524 33,000  Level Los Angeles Center
09:41AM 36.6378 -113.2986 70° East 454 522 33,000  Level Los Angeles Center
09:42AM 36.6806 -113.1508 70° East 456 525 33,000  Level Los Angeles Center
09:43AM 36.7231 -113.0050 70° East 452 520 33,000  Level Los Angeles Center
09:44AM 36.7653 -112.8575 70° East 454 522 33,000  Level Los Angeles Center
09:45AM 36.8081 -112.7089 70° East 457 526 33,000  Level Los Angeles Center
09:46AM 36.8583 -112.5308 71° East 456 525 33,000  Level Los Angeles Center
09:47AM 36.8997 -112.3817 71° East 456 525 33,000  Level Los Angeles Center
09:48AM 36.9422 -112.2331 70° East 458 527 33,000  Level Los Angeles Center
09:49AM 36.9839 -112.0836 71° East 458 527 33,000  Level Los Angeles Center
09:49AM 36.9936 -112.0525 69° East 460 529 33,000  Level Denver Center
09:50AM 37.0361 -111.9019 70° East 461 531 33,000  Level Denver Center
09:51AM 37.0772 -111.7511 71° East 461 531 33,000  Level Denver Center
09:52AM 37.1283 -111.5703 70° East 462 532 33,000  Level Denver Center
09:53AM 37.1664 -111.4203 72° East 457 526 33,000  Level Denver Center
09:54AM 37.2075 -111.2681 71° East 463 533 33,000  Level Denver Center
09:55AM 37.2478 -111.1153 72° East 464 534 33,000  Level Denver Center
09:56AM 37.2997 -110.9292 71° East 471 542 33,000  Level Denver Center
09:57AM 37.3383 -110.7767 72° East 466 536 33,000  Level Denver Center
09:58AM 37.3800 -110.6208 71° East 470 541 33,000  Level Denver Center
09:59AM 37.4206 -110.4647 72° East 472 543 33,000  Level Denver Center
10:00AM 37.4603 -110.3092 72° East 470 541 33,000  Level Denver Center
10:01AM 37.5083 -110.1281 71° East 476 548 33,000  Level Denver Center
10:02AM 37.5469 -109.9744 72° East 479 551 33,000  Level Denver Center
10:03AM 37.5856 -109.8214 72° East 478 550 33,000  Level Denver Center
10:04AM 37.6308 -109.6419 72° East 481 554 33,000  Level Denver Center
10:05AM 37.6831 -109.4978 65° Northeast 473 544 33,000  Level Denver Center
10:07AM 37.7467 -109.3589 60° Northeast 475 547 33,000  Level Denver Center
10:08AM 37.8306 -109.1717 60° Northeast 478 550 33,000  Level Denver Center
10:09AM 37.9050 -109.0053 60° Northeast 485 558 33,000  Level Denver Center
10:10AM 37.9672 -108.8642 61° Northeast 480 552 33,000  Level Denver Center
10:11AM 38.0306 -108.7239 60° Northeast 478 550 33,000  Level Denver Center
10:12AM 38.1025 -108.5592 61° Northeast 488 562 33,000  Level Denver Center
10:13AM 38.1639 -108.4172 61° Northeast 484 557 33,000  Level Denver Center
10:14AM 38.2367 -108.2533 60° Northeast 479 551 33,000  Level Denver Center
10:15AM 38.2986 -108.1100 61° Northeast 482 555 33,000  Level Denver Center
10:16AM 38.3711 -107.9444 61° Northeast 481 554 33,000  Level Denver Center
10:17AM 38.4331 -107.8014 61° Northeast 482 555 33,000  Level Denver Center
10:18AM 38.4947 -107.6575 61° Northeast 482 555 33,000  Level Denver Center
10:19AM 38.5658 -107.4900 61° Northeast 483 556 33,000  Level Denver Center
10:20AM 38.6278 -107.3450 61° Northeast 486 559 33,000  Level Denver Center
10:21AM 38.6997 -107.1742 62° Northeast 488 562 33,000  Level Denver Center
10:22AM 38.7569 -107.0414 61° Northeast 490 564 33,000  Level Denver Center
10:23AM 38.8206 -106.8867 62° Northeast 493 567 33,000  Level Denver Center
10:24AM 38.8964 -106.7075 61° Northeast 492 566 33,000  Level Denver Center
10:25AM 38.9564 -106.5589 63° Northeast 490 564 33,000 -1,260 Level Denver Center
10:26AM 39.0297 -106.3839 62° Northeast 495 570 30,500 -2,280 Descending Denver Center
10:27AM 39.0881 -106.2411 62° Northeast 478 550 28,400 -2,040 Descending Denver Center
10:28AM 39.1508 -106.0881 62° Northeast 464 534 26,400 -1,980 Descending Denver Center
10:29AM 39.2097 -105.9417 63° Northeast 459 528 24,400 -1,920 Descending Denver Center
10:30AM 39.2653 -105.8019 63° Northeast 437 503 22,500 -1,860 Descending Denver Center
10:31AM 39.3158 -105.6747 63° Northeast 403 464 20,700 -1,680 Descending Denver Center
10:32AM 39.3631 -105.5575 62° Northeast 368 423 19,100 -1,500 Descending Denver Center
10:33AM 39.3983 -105.4272 71° East 347 399 17,600 -1,440 Descending Denver Center
10:34AM 39.4031 -105.3008 87° East 327 376 16,200 -1,320 Descending Denver Center
10:35AM 39.4075 -105.1906 87° East 311 358 14,900 -1,080 Descending Denver Center
10:36AM 39.4128 -105.0878 86° East 291 335 14,000 -840 Descending Denver Center
10:38AM 39.4267 -104.9878 80° East 266 306 13,200 -780 Descending Denver Center
10:39AM 39.4544 -104.8994 68° East 266 306 12,500 -600 Descending Denver Center
10:40AM 39.4808 -104.8064 70° East 257 296 12,000 -600 Descending Denver Center
10:41AM 39.5297 -104.7472 43° Northeast 253 291 11,300 -960 Descending Denver Center
10:42AM 39.5925 -104.7236 16° North 236 272 10,100 -1,380 Descending Denver Center
10:43AM 39.6597 -104.6969 17° North 235 270 8,500 -1,560 Descending Denver Center